createdAt,value
2022-12-23T04:26:51.730Z,11.80
2022-12-23T04:29:20.599Z,11.80
2022-12-23T04:31:49.334Z,11.80
2022-12-23T04:34:17.880Z,11.80
2022-12-23T04:36:46.397Z,11.70
2022-12-23T04:39:15.221Z,11.70
2022-12-23T04:41:43.761Z,11.70
2022-12-23T04:44:12.326Z,11.60
2022-12-23T04:46:40.994Z,11.70
2022-12-23T04:49:10.062Z,11.60
2022-12-23T04:51:38.627Z,11.60
2022-12-23T04:59:04.466Z,11.70
2022-12-23T05:01:33.094Z,11.50
2022-12-23T05:04:01.691Z,11.50
2022-12-23T05:06:30.232Z,11.50
2022-12-23T05:08:58.792Z,11.40
2022-12-23T05:13:56.372Z,11.50
2022-12-23T05:16:25.098Z,11.50
2022-12-23T05:18:53.614Z,11.70
2022-12-23T05:21:22.225Z,11.50
2022-12-23T05:23:50.766Z,11.60
2022-12-23T05:26:19.568Z,11.50
2022-12-23T05:28:48.158Z,11.70
2022-12-23T05:31:17.305Z,11.60
2022-12-23T05:36:19.527Z,11.60
2022-12-23T05:38:48.430Z,11.50
2022-12-23T05:46:14.875Z,11.50
2022-12-23T05:48:43.445Z,11.40
2022-12-23T05:51:11.992Z,11.40
2022-12-23T05:53:40.563Z,11.50
2022-12-23T05:56:09.366Z,11.40
2022-12-23T06:01:07.069Z,11.50
2022-12-23T06:03:35.779Z,11.50
2022-12-23T06:08:33.975Z,11.50
2022-12-23T06:11:06.672Z,11.50
2022-12-23T06:13:34.455Z,11.50
2022-12-23T06:43:20.422Z,11.30
2022-12-23T06:45:49.875Z,11.60
2022-12-23T06:48:39.317Z,11.80
2022-12-23T06:53:40.230Z,11.40
2022-12-23T06:58:38.198Z,11.60
2022-12-23T07:01:07.024Z,11.60
2022-12-23T07:03:37.982Z,11.60
2022-12-23T07:16:07.912Z,11.70
2022-12-23T07:23:37.112Z,12.00
2022-12-23T07:26:07.961Z,11.70
2022-12-23T07:28:36.497Z,11.60
2022-12-23T07:31:07.257Z,11.60
2022-12-23T07:33:35.854Z,11.80
2022-12-23T07:36:04.466Z,11.70
2022-12-23T07:38:33.016Z,11.70
2022-12-23T07:41:01.642Z,11.80
2022-12-23T07:46:00.879Z,11.60
2022-12-23T08:33:38.220Z,11.90
2022-12-23T08:43:37.923Z,11.90
2022-12-23T08:46:07.052Z,11.80
2022-12-23T08:51:06.331Z,11.80
2022-12-23T08:58:38.916Z,10.50
2022-12-23T09:01:09.539Z,11.80
2022-12-23T09:11:05.481Z,11.80
2022-12-23T09:16:05.498Z,11.80
2022-12-23T09:21:05.239Z,11.70
2022-12-23T09:46:18.998Z,11.80
2022-12-23T09:48:56.689Z,11.80
2022-12-23T09:51:25.360Z,11.80
2022-12-23T10:19:51.675Z,13.70
2022-12-23T10:40:22.704Z,11.80
2022-12-23T10:55:44.606Z,11.80
2022-12-23T11:05:52.233Z,11.80
2022-12-23T11:10:51.055Z,11.90
2022-12-23T11:16:26.038Z,11.90
2022-12-23T11:21:46.131Z,11.90
2022-12-23T11:24:20.945Z,11.80
2022-12-23T11:26:52.570Z,11.70
2022-12-23T11:31:53.387Z,11.90
2022-12-23T11:34:24.784Z,11.80
2022-12-23T11:37:05.391Z,11.80
2022-12-23T11:39:37.452Z,11.80
2022-12-23T11:44:50.245Z,11.60
2022-12-23T11:47:25.290Z,11.60
2022-12-23T11:49:59.200Z,11.30
2022-12-23T11:55:00.203Z,11.40
2022-12-23T12:02:36.694Z,11.50
2022-12-23T12:07:37.026Z,11.60
2022-12-23T12:10:06.432Z,11.10
2022-12-23T12:12:35.130Z,10.90
2022-12-23T12:15:03.928Z,11.00
2022-12-23T12:17:47.382Z,11.00
2022-12-23T12:20:40.639Z,11.00
2022-12-23T12:23:16.123Z,10.80
2022-12-23T12:26:02.782Z,11.40
2022-12-23T12:28:34.387Z,10.90
2022-12-23T12:31:06.098Z,10.90
2022-12-23T12:36:13.161Z,10.90
2022-12-23T12:41:21.424Z,10.70
2022-12-23T12:49:25.142Z,10.80
2022-12-23T12:52:17.741Z,10.80
2022-12-23T12:55:03.975Z,10.80
2022-12-23T13:00:06.495Z,10.80
2022-12-23T13:02:39.450Z,10.70
2022-12-23T13:05:28.893Z,10.70
2022-12-23T13:08:17.010Z,10.70
2022-12-23T13:11:03.235Z,10.50
2022-12-23T13:13:56.135Z,10.70
2022-12-23T13:16:50.487Z,10.60
2022-12-23T13:19:55.408Z,10.70
2022-12-23T13:22:29.927Z,11.00
2022-12-23T13:25:10.649Z,11.20
2022-12-23T13:27:54.007Z,11.80
2022-12-23T13:30:23.806Z,11.20
2022-12-23T13:32:55.648Z,11.20
2022-12-23T13:35:59.746Z,11.10
2022-12-23T13:38:55.931Z,11.00
2022-12-23T13:41:39.916Z,10.60
2022-12-23T13:44:12.986Z,10.70
2022-12-23T13:46:59.704Z,10.70
2022-12-23T13:49:37.594Z,10.50
2022-12-23T13:52:28.898Z,10.70
2022-12-23T14:00:21.218Z,10.50
2022-12-23T14:02:55.480Z,10.60
2022-12-23T14:05:45.282Z,10.80
2022-12-23T14:08:28.991Z,10.90
2022-12-23T14:11:06.623Z,11.10
2022-12-23T14:16:13.924Z,11.50
2022-12-23T14:19:05.232Z,11.70
2022-12-23T14:22:08.807Z,11.70
2022-12-23T14:25:14.446Z,11.90
2022-12-23T14:27:52.194Z,11.90
2022-12-23T14:30:29.404Z,11.80
2022-12-23T14:35:42.396Z,11.80
2022-12-23T14:38:18.676Z,11.90
2022-12-23T14:40:49.778Z,12.20
2022-12-23T14:43:28.460Z,12.00
2022-12-23T14:46:02.356Z,12.00
2022-12-23T14:48:49.121Z,12.00
2022-12-23T14:51:38.429Z,12.00
2022-12-23T14:54:13.498Z,12.20
2022-12-23T14:56:46.989Z,12.10
2022-12-23T14:59:24.094Z,12.20
2022-12-23T15:02:02.143Z,12.30
2022-12-23T15:04:45.270Z,12.50
2022-12-23T15:07:28.978Z,12.60
2022-12-23T15:10:01.443Z,12.40
2022-12-23T15:12:39.189Z,12.60
2022-12-23T15:15:26.251Z,12.70
2022-12-23T15:18:13.818Z,12.60
2022-12-23T15:20:42.995Z,12.70
2022-12-23T15:23:14.666Z,12.70
2022-12-23T15:25:46.424Z,12.80
2022-12-23T15:28:21.380Z,12.80
2022-12-23T15:30:55.376Z,12.90
2022-12-23T15:35:58.444Z,12.80
2022-12-23T15:38:30.345Z,14.50
2022-12-23T15:41:04.462Z,12.80
2022-12-23T15:43:33.350Z,12.90
2022-12-23T15:46:29.140Z,13.00
2022-12-23T15:48:53.371Z,13.00
2022-12-23T15:52:05.662Z,12.90
2022-12-23T15:54:07.372Z,13.00
2022-12-23T15:56:39.263Z,13.10
2022-12-23T15:59:09.660Z,13.20
2022-12-23T16:01:42.035Z,13.30
2022-12-23T16:04:14.122Z,13.50
2022-12-23T16:06:44.581Z,12.30
2022-12-23T16:09:21.961Z,13.40
2022-12-23T16:11:53.588Z,13.70
2022-12-23T16:14:40.508Z,13.80
2022-12-23T16:17:12.309Z,13.90
2022-12-23T16:19:49.222Z,14.00
2022-12-23T16:25:13.825Z,14.30
2022-12-23T16:27:45.571Z,14.30
2022-12-23T16:30:20.781Z,14.40
2022-12-23T16:32:53.139Z,14.50
2022-12-23T16:35:28.205Z,14.60
2022-12-23T16:37:59.925Z,14.60
2022-12-23T16:40:28.736Z,14.60
2022-12-23T16:42:58.659Z,14.60
2022-12-23T16:45:29.059Z,14.70
2022-12-23T16:47:59.012Z,14.60
2022-12-23T16:50:29.427Z,14.60
2022-12-23T16:52:58.099Z,14.70
2022-12-23T16:55:26.653Z,14.40
2022-12-23T16:57:55.256Z,14.50
2022-12-23T17:00:24.027Z,14.60
2022-12-23T17:02:52.756Z,14.60
2022-12-23T17:05:24.523Z,14.50
2022-12-23T17:07:53.262Z,14.50
2022-12-23T17:10:21.959Z,14.60
2022-12-23T17:12:51.199Z,14.50
2022-12-23T17:15:22.837Z,14.40
2022-12-23T17:20:28.598Z,14.40
2022-12-23T17:23:00.039Z,14.30
2022-12-23T17:25:28.605Z,14.20
2022-12-23T17:30:26.294Z,14.20
2022-12-23T17:33:00.830Z,14.40
2022-12-23T17:35:29.543Z,14.20
2022-12-23T17:37:58.136Z,14.30
2022-12-23T17:40:27.003Z,14.20
2022-12-23T17:42:56.151Z,14.20
2022-12-23T17:45:27.760Z,14.10
2022-12-23T17:47:56.432Z,14.20
2022-12-23T17:50:25.425Z,14.10
2022-12-23T17:52:54.040Z,14.10
2022-12-23T17:55:25.098Z,14.10
2022-12-23T17:57:54.005Z,13.70
2022-12-23T18:00:31.891Z,14.00
2022-12-23T18:02:54.602Z,14.00
2022-12-23T18:05:31.527Z,13.80
2022-12-23T18:08:01.877Z,13.80
2022-12-23T18:10:37.290Z,13.90
2022-12-23T18:13:12.094Z,13.80
2022-12-23T18:15:43.189Z,13.70
2022-12-23T18:18:28.575Z,13.40
2022-12-23T18:20:53.724Z,13.80
2022-12-23T18:23:31.350Z,13.60
2022-12-23T18:26:00.375Z,13.50
2022-12-23T18:28:29.003Z,13.60
2022-12-23T18:30:58.931Z,13.50
2022-12-23T18:33:29.453Z,13.60
2022-12-23T18:35:58.523Z,13.60
2022-12-23T18:38:27.187Z,13.60
2022-12-23T18:40:56.783Z,13.60
2022-12-23T18:43:28.061Z,13.60
2022-12-23T18:45:56.720Z,13.60
2022-12-23T18:48:25.370Z,13.50
2022-12-23T18:50:53.930Z,13.60
2022-12-23T18:53:25.117Z,13.70
2022-12-23T18:55:54.990Z,13.70
2022-12-23T18:58:24.590Z,13.80
2022-12-23T19:00:54.110Z,13.70
2022-12-23T19:03:31.337Z,13.90
2022-12-23T19:06:02.101Z,13.90
2022-12-23T19:08:30.643Z,13.80
2022-12-23T19:10:59.237Z,14.00
2022-12-23T19:15:56.058Z,14.00
2022-12-23T19:18:24.679Z,13.90
2022-12-23T19:20:53.233Z,14.00
2022-12-23T19:23:21.790Z,14.00
2022-12-23T19:25:55.355Z,14.00
2022-12-23T19:28:20.786Z,13.90
2022-12-23T19:30:49.437Z,14.00
2022-12-23T19:33:18.116Z,14.00
2022-12-23T19:35:46.752Z,14.00
2022-12-23T19:38:15.316Z,14.50
2022-12-23T19:40:43.898Z,14.00
2022-12-23T19:43:12.447Z,13.90
2022-12-23T19:48:10.508Z,13.90
2022-12-23T19:50:39.045Z,13.90
2022-12-23T19:53:08.125Z,13.90
2022-12-23T19:58:04.921Z,13.80
2022-12-23T20:00:33.500Z,13.90
2022-12-23T20:05:30.378Z,13.90
2022-12-23T20:08:01.861Z,13.80
2022-12-23T20:10:30.395Z,13.90
2022-12-23T20:12:59.037Z,13.80
2022-12-23T20:15:27.548Z,13.60
2022-12-23T20:17:56.109Z,13.70
2022-12-23T20:20:24.717Z,13.80
2022-12-23T20:25:21.621Z,13.80
2022-12-23T20:27:50.315Z,13.90
2022-12-23T20:30:18.922Z,13.80
2022-12-23T20:35:15.795Z,13.90
2022-12-23T20:37:44.425Z,13.90
2022-12-23T20:40:14.635Z,14.00
2022-12-23T20:42:43.167Z,14.10
2022-12-23T20:45:12.028Z,14.10
2022-12-23T20:47:41.030Z,14.10
2022-12-23T20:50:10.042Z,14.10
2022-12-23T20:52:38.928Z,13.90
2022-12-23T20:55:07.999Z,14.00
2022-12-23T20:57:36.525Z,14.10
2022-12-23T21:00:07.144Z,14.10
2022-12-23T21:02:35.779Z,13.90
2022-12-23T21:05:04.601Z,14.00
2022-12-23T21:07:33.157Z,14.00
2022-12-23T21:10:01.749Z,14.00
2022-12-23T21:12:30.288Z,14.00
2022-12-23T21:14:58.848Z,14.10
2022-12-23T21:22:24.185Z,14.00
2022-12-23T21:27:21.205Z,14.00
2022-12-23T21:29:49.744Z,14.00
2022-12-23T21:32:18.360Z,13.90
2022-12-23T21:34:46.936Z,13.90
2022-12-23T21:37:15.501Z,14.00
2022-12-23T21:39:44.110Z,14.00
2022-12-23T21:42:12.686Z,14.00
2022-12-23T21:44:41.328Z,13.80
2022-12-23T21:47:09.920Z,13.70
2022-12-23T21:49:38.436Z,13.70
2022-12-23T21:52:07.310Z,13.80
2022-12-23T21:54:35.873Z,13.70
2022-12-23T21:57:04.505Z,13.70
2022-12-23T21:59:35.313Z,13.70
2022-12-23T22:02:03.538Z,13.70
2022-12-23T22:07:00.476Z,13.70
2022-12-23T22:09:29.142Z,13.80
2022-12-23T22:11:57.957Z,13.80
2022-12-23T22:14:26.502Z,13.70
2022-12-23T22:16:55.171Z,13.70
2022-12-23T22:19:23.710Z,13.80
2022-12-23T22:21:52.451Z,13.40
2022-12-23T22:24:21.067Z,13.70
2022-12-23T22:26:49.652Z,13.70
2022-12-23T22:29:18.253Z,13.60
2022-12-23T22:31:52.742Z,13.60
2022-12-23T22:36:50.942Z,13.80
2022-12-23T22:39:21.820Z,13.80
2022-12-23T22:41:51.789Z,13.90
2022-12-23T22:46:49.413Z,13.80
2022-12-23T22:49:18.742Z,13.90
2022-12-23T22:51:47.428Z,13.80
2022-12-23T22:54:16.049Z,14.00
2022-12-23T22:56:45.945Z,14.00
2022-12-23T22:59:20.340Z,13.90
2022-12-23T23:04:17.540Z,14.00
2022-12-23T23:06:46.112Z,13.90
2022-12-23T23:09:17.893Z,13.80
2022-12-23T23:11:47.483Z,14.00
2022-12-23T23:16:44.503Z,14.00
2022-12-23T23:19:15.025Z,14.00
2022-12-23T23:21:43.602Z,13.90
2022-12-23T23:24:12.215Z,14.00
2022-12-23T23:26:40.834Z,13.90
2022-12-23T23:29:09.365Z,13.90
2022-12-23T23:31:42.758Z,14.00
2022-12-23T23:34:08.283Z,13.90
2022-12-23T23:36:37.003Z,13.80
2022-12-23T23:39:05.665Z,13.80
2022-12-23T23:41:35.968Z,13.90
2022-12-23T23:44:11.024Z,13.80
2022-12-23T23:46:40.102Z,13.80
2022-12-23T23:49:08.731Z,13.90
2022-12-23T23:51:37.750Z,13.80
2022-12-23T23:54:07.618Z,13.70
2022-12-23T23:56:38.938Z,13.70
2022-12-23T23:59:07.099Z,13.60
